sensor_id;sensor_type;location;lat;lon;timestamp;temperature;humidity
8860;DHT22;4466;50.948;4.832;2023-11-21T00:00:14;9.20;99.90
8860;DHT22;4466;50.948;4.832;2023-11-21T00:02:41;9.20;99.90
8860;DHT22;4466;50.948;4.832;2023-11-21T00:05:08;9.20;99.90
8860;DHT22;4466;50.948;4.832;2023-11-21T00:07:35;9.20;99.90
8860;DHT22;4466;50.948;4.832;2023-11-21T00:10:01;9.20;99.90
8860;DHT22;4466;50.948;4.832;2023-11-21T00:12:28;9.30;99.90
8860;DHT22;4466;50.948;4.832;2023-11-21T00:14:55;9.30;99.90
8860;DHT22;4466;50.948;4.832;2023-11-21T00:17:21;9.20;99.90
8860;DHT22;4466;50.948;4.832;2023-11-21T00:19:47;9.20;99.90
8860;DHT22;4466;50.948;4.832;2023-11-21T00:22:12;9.20;99.90
8860;DHT22;4466;50.948;4.832;2023-11-21T00:24:38;9.10;99.90
8860;DHT22;4466;50.948;4.832;2023-11-21T00:27:04;9.10;99.90
8860;DHT22;4466;50.948;4.832;2023-11-21T00:29:29;9.10;99.90
8860;DHT22;4466;50.948;4.832;2023-11-21T00:31:55;9.10;99.90
8860;DHT22;4466;50.948;4.832;2023-11-21T00:34:21;9.10;99.90
8860;DHT22;4466;50.948;4.832;2023-11-21T00:36:47;9.10;99.90
8860;DHT22;4466;50.948;4.832;2023-11-21T00:39:12;9.10;99.90
8860;DHT22;4466;50.948;4.832;2023-11-21T00:41:38;9.10;99.90
8860;DHT22;4466;50.948;4.832;2023-11-21T00:44:04;9.10;99.90
8860;DHT22;4466;50.948;4.832;2023-11-21T00:46:30;9.10;99.90
8860;DHT22;4466;50.948;4.832;2023-11-21T00:48:56;9.00;99.90
8860;DHT22;4466;50.948;4.832;2023-11-21T00:51:22;9.00;99.90
8860;DHT22;4466;50.948;4.832;2023-11-21T00:53:48;9.00;99.90
8860;DHT22;4466;50.948;4.832;2023-11-21T00:56:14;8.90;99.90
8860;DHT22;4466;50.948;4.832;2023-11-21T00:58:40;8.80;99.90
8860;DHT22;4466;50.948;4.832;2023-11-21T01:01:12;8.80;99.90
8860;DHT22;4466;50.948;4.832;2023-11-21T01:03:37;8.70;99.90
8860;DHT22;4466;50.948;4.832;2023-11-21T01:06:03;8.60;99.90
8860;DHT22;4466;50.948;4.832;2023-11-21T01:08:32;8.60;99.90
8860;DHT22;4466;50.948;4.832;2023-11-21T01:10:58;8.50;99.90
8860;DHT22;4466;50.948;4.832;2023-11-21T01:13:23;8.50;99.90
8860;DHT22;4466;50.948;4.832;2023-11-21T01:15:55;8.40;99.90
8860;DHT22;4466;50.948;4.832;2023-11-21T01:18:21;8.30;99.90
8860;DHT22;4466;50.948;4.832;2023-11-21T01:20:46;8.30;99.90
8860;DHT22;4466;50.948;4.832;2023-11-21T01:23:13;8.20;99.90
8860;DHT22;4466;50.948;4.832;2023-11-21T01:25:39;8.10;99.90
8860;DHT22;4466;50.948;4.832;2023-11-21T01:28:04;8.10;99.90
8860;DHT22;4466;50.948;4.832;2023-11-21T01:30:30;8.10;99.90
8860;DHT22;4466;50.948;4.832;2023-11-21T01:32:58;8.00;99.90
8860;DHT22;4466;50.948;4.832;2023-11-21T01:35:24;7.90;99.90
8860;DHT22;4466;50.948;4.832;2023-11-21T01:37:50;7.90;99.90
8860;DHT22;4466;50.948;4.832;2023-11-21T01:40:15;7.80;99.90
8860;DHT22;4466;50.948;4.832;2023-11-21T01:42:42;7.80;99.90
8860;DHT22;4466;50.948;4.832;2023-11-21T01:45:09;7.80;99.90
8860;DHT22;4466;50.948;4.832;2023-11-21T01:47:36;7.80;99.90
8860;DHT22;4466;50.948;4.832;2023-11-21T01:50:02;7.80;99.90
8860;DHT22;4466;50.948;4.832;2023-11-21T01:52:32;7.90;99.90
8860;DHT22;4466;50.948;4.832;2023-11-21T01:54:59;7.90;99.90
8860;DHT22;4466;50.948;4.832;2023-11-21T01:57:25;7.90;99.90
8860;DHT22;4466;50.948;4.832;2023-11-21T01:59:53;7.90;99.90
8860;DHT22;4466;50.948;4.832;2023-11-21T02:02:19;7.80;99.90
8860;DHT22;4466;50.948;4.832;2023-11-21T02:04:45;7.90;99.90
8860;DHT22;4466;50.948;4.832;2023-11-21T02:07:11;7.80;99.90
8860;DHT22;4466;50.948;4.832;2023-11-21T02:09:37;7.80;99.90
8860;DHT22;4466;50.948;4.832;2023-11-21T02:12:08;7.80;99.90
8860;DHT22;4466;50.948;4.832;2023-11-21T02:14:35;7.70;99.90
8860;DHT22;4466;50.948;4.832;2023-11-21T02:17:02;7.70;99.90
8860;DHT22;4466;50.948;4.832;2023-11-21T02:19:29;7.80;99.90
8860;DHT22;4466;50.948;4.832;2023-11-21T02:21:59;7.80;99.90
8860;DHT22;4466;50.948;4.832;2023-11-21T02:24:26;7.70;99.90
8860;DHT22;4466;50.948;4.832;2023-11-21T02:26:52;7.70;99.90
8860;DHT22;4466;50.948;4.832;2023-11-21T02:29:21;7.70;99.90
8860;DHT22;4466;50.948;4.832;2023-11-21T02:31:50;7.70;99.90
8860;DHT22;4466;50.948;4.832;2023-11-21T02:34:17;7.70;99.90
8860;DHT22;4466;50.948;4.832;2023-11-21T02:36:46;7.70;99.90
8860;DHT22;4466;50.948;4.832;2023-11-21T02:39:15;7.60;99.90
8860;DHT22;4466;50.948;4.832;2023-11-21T02:41:42;7.60;99.90
8860;DHT22;4466;50.948;4.832;2023-11-21T02:44:08;7.60;99.90
8860;DHT22;4466;50.948;4.832;2023-11-21T02:46:34;7.60;99.90
8860;DHT22;4466;50.948;4.832;2023-11-21T02:49:04;7.60;99.90
8860;DHT22;4466;50.948;4.832;2023-11-21T02:51:32;7.70;99.90
8860;DHT22;4466;50.948;4.832;2023-11-21T02:53:57;7.70;99.90
8860;DHT22;4466;50.948;4.832;2023-11-21T02:56:25;7.60;99.90
8860;DHT22;4466;50.948;4.832;2023-11-21T02:58:57;7.60;99.90
8860;DHT22;4466;50.948;4.832;2023-11-21T03:01:22;7.70;99.90
8860;DHT22;4466;50.948;4.832;2023-11-21T03:03:49;7.60;99.90
8860;DHT22;4466;50.948;4.832;2023-11-21T03:06:19;7.60;99.90
8860;DHT22;4466;50.948;4.832;2023-11-21T03:08:46;7.60;99.90
8860;DHT22;4466;50.948;4.832;2023-11-21T03:11:12;7.60;99.90
8860;DHT22;4466;50.948;4.832;2023-11-21T03:13:42;7.60;99.90
8860;DHT22;4466;50.948;4.832;2023-11-21T03:16:10;7.60;99.90
8860;DHT22;4466;50.948;4.832;2023-11-21T03:18:36;7.60;99.90
8860;DHT22;4466;50.948;4.832;2023-11-21T03:21:03;7.50;99.90
8860;DHT22;4466;50.948;4.832;2023-11-21T03:23:29;7.60;99.90
8860;DHT22;4466;50.948;4.832;2023-11-21T03:25:54;7.60;99.90
8860;DHT22;4466;50.948;4.832;2023-11-21T03:28:20;7.60;99.90
8860;DHT22;4466;50.948;4.832;2023-11-21T03:30:45;7.70;99.90
8860;DHT22;4466;50.948;4.832;2023-11-21T03:33:11;7.70;99.90
8860;DHT22;4466;50.948;4.832;2023-11-21T03:35:37;7.70;99.90
8860;DHT22;4466;50.948;4.832;2023-11-21T03:38:03;7.70;99.90
8860;DHT22;4466;50.948;4.832;2023-11-21T03:40:30;7.70;99.90
8860;DHT22;4466;50.948;4.832;2023-11-21T03:42:56;7.70;99.90
8860;DHT22;4466;50.948;4.832;2023-11-21T03:45:22;7.70;99.90
8860;DHT22;4466;50.948;4.832;2023-11-21T03:47:48;7.80;99.90
8860;DHT22;4466;50.948;4.832;2023-11-21T03:50:14;7.80;99.90
8860;DHT22;4466;50.948;4.832;2023-11-21T03:52:40;7.90;99.90
8860;DHT22;4466;50.948;4.832;2023-11-21T03:55:05;7.80;99.90
8860;DHT22;4466;50.948;4.832;2023-11-21T03:57:31;7.80;99.90
8860;DHT22;4466;50.948;4.832;2023-11-21T03:59:57;7.80;99.90
8860;DHT22;4466;50.948;4.832;2023-11-21T04:02:22;7.90;99.90
8860;DHT22;4466;50.948;4.832;2023-11-21T04:04:50;7.90;99.90
8860;DHT22;4466;50.948;4.832;2023-11-21T04:07:16;7.80;99.90
8860;DHT22;4466;50.948;4.832;2023-11-21T04:09:42;7.80;99.90
8860;DHT22;4466;50.948;4.832;2023-11-21T04:12:08;7.80;99.90
8860;DHT22;4466;50.948;4.832;2023-11-21T04:14:36;7.80;99.90
8860;DHT22;4466;50.948;4.832;2023-11-21T04:17:01;7.80;99.90
8860;DHT22;4466;50.948;4.832;2023-11-21T04:19:29;7.80;99.90
8860;DHT22;4466;50.948;4.832;2023-11-21T04:21:55;7.90;99.90
8860;DHT22;4466;50.948;4.832;2023-11-21T04:24:20;7.90;99.90
8860;DHT22;4466;50.948;4.832;2023-11-21T04:26:46;7.90;99.90
8860;DHT22;4466;50.948;4.832;2023-11-21T04:29:12;8.00;99.90
8860;DHT22;4466;50.948;4.832;2023-11-21T04:31:38;8.00;99.90
8860;DHT22;4466;50.948;4.832;2023-11-21T04:34:04;8.10;99.90
8860;DHT22;4466;50.948;4.832;2023-11-21T04:36:30;8.10;99.90
8860;DHT22;4466;50.948;4.832;2023-11-21T04:38:56;8.10;99.90
8860;DHT22;4466;50.948;4.832;2023-11-21T04:41:22;8.10;99.90
8860;DHT22;4466;50.948;4.832;2023-11-21T04:43:48;8.10;99.90
8860;DHT22;4466;50.948;4.832;2023-11-21T04:46:14;8.00;99.90
8860;DHT22;4466;50.948;4.832;2023-11-21T04:48:40;8.00;99.90
8860;DHT22;4466;50.948;4.832;2023-11-21T04:51:06;8.00;99.90
8860;DHT22;4466;50.948;4.832;2023-11-21T04:53:32;8.00;99.90
8860;DHT22;4466;50.948;4.832;2023-11-21T04:55:57;8.00;99.90
8860;DHT22;4466;50.948;4.832;2023-11-21T04:58:24;8.10;99.90
8860;DHT22;4466;50.948;4.832;2023-11-21T05:00:50;8.10;99.90
8860;DHT22;4466;50.948;4.832;2023-11-21T05:03:15;8.20;99.90
8860;DHT22;4466;50.948;4.832;2023-11-21T05:05:41;8.30;99.90
8860;DHT22;4466;50.948;4.832;2023-11-21T05:08:06;8.30;99.90
8860;DHT22;4466;50.948;4.832;2023-11-21T05:10:33;8.30;99.90
8860;DHT22;4466;50.948;4.832;2023-11-21T05:12:59;8.30;99.90
8860;DHT22;4466;50.948;4.832;2023-11-21T05:15:25;8.30;99.90
8860;DHT22;4466;50.948;4.832;2023-11-21T05:17:53;8.30;99.90
8860;DHT22;4466;50.948;4.832;2023-11-21T05:20:19;8.30;99.90
8860;DHT22;4466;50.948;4.832;2023-11-21T05:22:49;8.30;99.90
8860;DHT22;4466;50.948;4.832;2023-11-21T05:25:15;8.30;99.90
8860;DHT22;4466;50.948;4.832;2023-11-21T05:27:42;8.30;99.90
8860;DHT22;4466;50.948;4.832;2023-11-21T05:30:08;8.30;99.90
8860;DHT22;4466;50.948;4.832;2023-11-21T05:32:38;8.40;99.90
8860;DHT22;4466;50.948;4.832;2023-11-21T05:35:04;8.50;99.90
8860;DHT22;4466;50.948;4.832;2023-11-21T05:37:35;8.50;99.90
8860;DHT22;4466;50.948;4.832;2023-11-21T05:40:01;8.40;99.90
8860;DHT22;4466;50.948;4.832;2023-11-21T05:42:31;8.50;99.90
8860;DHT22;4466;50.948;4.832;2023-11-21T05:44:57;8.40;99.90
8860;DHT22;4466;50.948;4.832;2023-11-21T05:47:24;8.40;99.90
8860;DHT22;4466;50.948;4.832;2023-11-21T05:49:51;8.50;99.90
8860;DHT22;4466;50.948;4.832;2023-11-21T05:52:18;8.50;99.90
8860;DHT22;4466;50.948;4.832;2023-11-21T05:54:43;8.50;99.90
8860;DHT22;4466;50.948;4.832;2023-11-21T05:57:09;8.60;99.90
8860;DHT22;4466;50.948;4.832;2023-11-21T05:59:34;8.70;99.90
8860;DHT22;4466;50.948;4.832;2023-11-21T06:02:00;8.70;99.90
8860;DHT22;4466;50.948;4.832;2023-11-21T06:04:27;8.60;99.90
8860;DHT22;4466;50.948;4.832;2023-11-21T06:06:53;8.60;99.90
8860;DHT22;4466;50.948;4.832;2023-11-21T06:09:19;8.70;99.90
8860;DHT22;4466;50.948;4.832;2023-11-21T06:11:46;8.70;99.90
8860;DHT22;4466;50.948;4.832;2023-11-21T06:14:11;8.60;99.90
8860;DHT22;4466;50.948;4.832;2023-11-21T06:16:37;8.60;99.90
8860;DHT22;4466;50.948;4.832;2023-11-21T06:19:02;8.60;99.90
8860;DHT22;4466;50.948;4.832;2023-11-21T06:21:28;8.60;99.90
8860;DHT22;4466;50.948;4.832;2023-11-21T06:23:54;8.60;99.90
8860;DHT22;4466;50.948;4.832;2023-11-21T06:26:22;8.60;99.90
8860;DHT22;4466;50.948;4.832;2023-11-21T06:28:48;8.60;99.90
8860;DHT22;4466;50.948;4.832;2023-11-21T06:31:16;8.70;99.90
8860;DHT22;4466;50.948;4.832;2023-11-21T06:33:43;8.70;99.90
8860;DHT22;4466;50.948;4.832;2023-11-21T06:36:09;8.70;99.90
8860;DHT22;4466;50.948;4.832;2023-11-21T06:38:37;8.80;99.90
8860;DHT22;4466;50.948;4.832;2023-11-21T06:41:03;8.80;99.90
8860;DHT22;4466;50.948;4.832;2023-11-21T06:43:30;8.80;99.90
8860;DHT22;4466;50.948;4.832;2023-11-21T06:45:57;8.80;99.90
8860;DHT22;4466;50.948;4.832;2023-11-21T06:48:22;8.70;99.90
8860;DHT22;4466;50.948;4.832;2023-11-21T06:50:48;8.70;99.90
8860;DHT22;4466;50.948;4.832;2023-11-21T06:53:14;8.80;99.90
8860;DHT22;4466;50.948;4.832;2023-11-21T06:55:40;8.80;99.90
8860;DHT22;4466;50.948;4.832;2023-11-21T06:58:06;8.80;99.90
8860;DHT22;4466;50.948;4.832;2023-11-21T07:00:31;8.90;99.90
8860;DHT22;4466;50.948;4.832;2023-11-21T07:02:57;8.80;99.90
8860;DHT22;4466;50.948;4.832;2023-11-21T07:05:22;8.80;99.90
8860;DHT22;4466;50.948;4.832;2023-11-21T07:07:49;8.90;99.90
8860;DHT22;4466;50.948;4.832;2023-11-21T07:10:15;8.90;99.90
8860;DHT22;4466;50.948;4.832;2023-11-21T07:12:40;9.00;99.90
8860;DHT22;4466;50.948;4.832;2023-11-21T07:15:07;9.00;99.90
8860;DHT22;4466;50.948;4.832;2023-11-21T07:17:37;9.10;99.90
8860;DHT22;4466;50.948;4.832;2023-11-21T07:20:04;9.10;99.90
8860;DHT22;4466;50.948;4.832;2023-11-21T07:22:32;9.20;99.90
8860;DHT22;4466;50.948;4.832;2023-11-21T07:24:57;9.10;99.90
8860;DHT22;4466;50.948;4.832;2023-11-21T07:27:23;9.10;99.90
8860;DHT22;4466;50.948;4.832;2023-11-21T07:29:49;9.20;99.90
8860;DHT22;4466;50.948;4.832;2023-11-21T07:32:14;9.10;99.90
8860;DHT22;4466;50.948;4.832;2023-11-21T07:34:40;9.10;99.90
8860;DHT22;4466;50.948;4.832;2023-11-21T07:37:09;9.10;99.90
8860;DHT22;4466;50.948;4.832;2023-11-21T07:39:35;9.10;99.90
8860;DHT22;4466;50.948;4.832;2023-11-21T07:42:07;9.10;99.90
8860;DHT22;4466;50.948;4.832;2023-11-21T07:44:32;9.10;99.90
8860;DHT22;4466;50.948;4.832;2023-11-21T07:46:58;9.20;99.90
8860;DHT22;4466;50.948;4.832;2023-11-21T07:49:24;9.20;99.90
8860;DHT22;4466;50.948;4.832;2023-11-21T07:51:50;9.20;99.90
8860;DHT22;4466;50.948;4.832;2023-11-21T07:54:16;9.30;99.90
8860;DHT22;4466;50.948;4.832;2023-11-21T07:56:42;9.30;99.90
8860;DHT22;4466;50.948;4.832;2023-11-21T07:59:08;9.30;99.90
8860;DHT22;4466;50.948;4.832;2023-11-21T08:01:33;9.40;99.90
8860;DHT22;4466;50.948;4.832;2023-11-21T08:03:59;9.40;99.90
8860;DHT22;4466;50.948;4.832;2023-11-21T08:06:29;9.40;99.90
8860;DHT22;4466;50.948;4.832;2023-11-21T08:08:56;9.40;99.90
8860;DHT22;4466;50.948;4.832;2023-11-21T08:11:22;9.40;99.90
8860;DHT22;4466;50.948;4.832;2023-11-21T08:13:48;9.40;99.90
8860;DHT22;4466;50.948;4.832;2023-11-21T08:16:14;9.50;99.90
8860;DHT22;4466;50.948;4.832;2023-11-21T08:18:40;9.50;99.90
8860;DHT22;4466;50.948;4.832;2023-11-21T08:21:06;9.50;99.90
8860;DHT22;4466;50.948;4.832;2023-11-21T08:23:33;9.50;99.90
8860;DHT22;4466;50.948;4.832;2023-11-21T08:25:59;9.50;99.90
8860;DHT22;4466;50.948;4.832;2023-11-21T08:28:25;9.50;99.90
8860;DHT22;4466;50.948;4.832;2023-11-21T08:30:53;9.60;99.90
8860;DHT22;4466;50.948;4.832;2023-11-21T08:33:22;9.70;99.90
8860;DHT22;4466;50.948;4.832;2023-11-21T08:35:48;9.70;99.90
8860;DHT22;4466;50.948;4.832;2023-11-21T08:38:14;9.80;99.90
8860;DHT22;4466;50.948;4.832;2023-11-21T08:40:40;9.80;99.90
8860;DHT22;4466;50.948;4.832;2023-11-21T08:43:05;9.90;99.90
8860;DHT22;4466;50.948;4.832;2023-11-21T08:45:32;9.90;99.90
8860;DHT22;4466;50.948;4.832;2023-11-21T08:48:00;9.90;99.90
8860;DHT22;4466;50.948;4.832;2023-11-21T08:50:26;9.90;99.90
8860;DHT22;4466;50.948;4.832;2023-11-21T08:52:52;9.90;99.90
8860;DHT22;4466;50.948;4.832;2023-11-21T08:55:17;10.00;99.90
8860;DHT22;4466;50.948;4.832;2023-11-21T08:57:45;10.00;99.90
8860;DHT22;4466;50.948;4.832;2023-11-21T09:00:12;10.00;99.90
8860;DHT22;4466;50.948;4.832;2023-11-21T09:02:41;10.10;99.90
8860;DHT22;4466;50.948;4.832;2023-11-21T09:05:08;10.20;99.90
8860;DHT22;4466;50.948;4.832;2023-11-21T09:07:35;10.20;99.90
8860;DHT22;4466;50.948;4.832;2023-11-21T09:10:01;10.30;99.90
8860;DHT22;4466;50.948;4.832;2023-11-21T09:12:27;10.30;99.90
8860;DHT22;4466;50.948;4.832;2023-11-21T09:14:53;10.30;99.90
8860;DHT22;4466;50.948;4.832;2023-11-21T09:17:19;10.30;99.90
8860;DHT22;4466;50.948;4.832;2023-11-21T09:19:45;10.40;99.90
8860;DHT22;4466;50.948;4.832;2023-11-21T09:22:17;10.40;99.90
8860;DHT22;4466;50.948;4.832;2023-11-21T09:24:42;10.40;99.90
8860;DHT22;4466;50.948;4.832;2023-11-21T09:27:09;10.50;99.90
8860;DHT22;4466;50.948;4.832;2023-11-21T09:29:35;10.50;99.90
8860;DHT22;4466;50.948;4.832;2023-11-21T09:32:01;10.60;99.90
8860;DHT22;4466;50.948;4.832;2023-11-21T09:34:27;10.60;99.90
8860;DHT22;4466;50.948;4.832;2023-11-21T09:36:52;10.60;99.90
8860;DHT22;4466;50.948;4.832;2023-11-21T09:39:18;10.80;99.90
8860;DHT22;4466;50.948;4.832;2023-11-21T09:41:48;10.80;99.90
8860;DHT22;4466;50.948;4.832;2023-11-21T09:44:18;10.80;99.90
8860;DHT22;4466;50.948;4.832;2023-11-21T09:46:47;10.90;99.90
8860;DHT22;4466;50.948;4.832;2023-11-21T09:49:18;10.90;99.90
8860;DHT22;4466;50.948;4.832;2023-11-21T09:51:47;11.00;99.90
8860;DHT22;4466;50.948;4.832;2023-11-21T09:54:13;11.00;99.90
8860;DHT22;4466;50.948;4.832;2023-11-21T09:56:41;11.10;99.90
8860;DHT22;4466;50.948;4.832;2023-11-21T09:59:11;11.10;99.90
8860;DHT22;4466;50.948;4.832;2023-11-21T10:01:38;11.10;99.90
8860;DHT22;4466;50.948;4.832;2023-11-21T10:04:06;11.10;99.90
8860;DHT22;4466;50.948;4.832;2023-11-21T10:06:40;11.20;99.90
8860;DHT22;4466;50.948;4.832;2023-11-21T10:09:12;11.20;99.90
8860;DHT22;4466;50.948;4.832;2023-11-21T10:11:43;11.20;99.90
8860;DHT22;4466;50.948;4.832;2023-11-21T10:14:12;11.20;99.90
8860;DHT22;4466;50.948;4.832;2023-11-21T10:16:40;11.20;99.90
8860;DHT22;4466;50.948;4.832;2023-11-21T10:19:09;11.20;99.90
8860;DHT22;4466;50.948;4.832;2023-11-21T10:21:36;11.10;99.90
8860;DHT22;4466;50.948;4.832;2023-11-21T10:24:02;11.10;99.90
8860;DHT22;4466;50.948;4.832;2023-11-21T10:26:28;11.00;99.90
8860;DHT22;4466;50.948;4.832;2023-11-21T10:28:58;11.00;99.90
8860;DHT22;4466;50.948;4.832;2023-11-21T10:31:27;11.00;99.90
8860;DHT22;4466;50.948;4.832;2023-11-21T10:33:53;11.00;99.90
8860;DHT22;4466;50.948;4.832;2023-11-21T10:36:26;11.00;99.90
8860;DHT22;4466;50.948;4.832;2023-11-21T10:38:53;11.00;99.90
8860;DHT22;4466;50.948;4.832;2023-11-21T10:41:19;11.10;99.90
8860;DHT22;4466;50.948;4.832;2023-11-21T10:43:45;11.10;99.90
8860;DHT22;4466;50.948;4.832;2023-11-21T10:46:11;11.10;99.90
8860;DHT22;4466;50.948;4.832;2023-11-21T10:48:37;11.10;99.90
8860;DHT22;4466;50.948;4.832;2023-11-21T10:51:07;11.10;99.90
8860;DHT22;4466;50.948;4.832;2023-11-21T10:53:33;11.10;99.90
8860;DHT22;4466;50.948;4.832;2023-11-21T10:56:06;11.20;99.90
8860;DHT22;4466;50.948;4.832;2023-11-21T10:58:35;11.30;99.90
8860;DHT22;4466;50.948;4.832;2023-11-21T11:01:03;11.30;99.90
8860;DHT22;4466;50.948;4.832;2023-11-21T11:03:31;11.20;99.90
8860;DHT22;4466;50.948;4.832;2023-11-21T11:05:59;11.30;99.90
8860;DHT22;4466;50.948;4.832;2023-11-21T11:08:25;11.30;99.90
8860;DHT22;4466;50.948;4.832;2023-11-21T11:10:53;11.20;99.90
8860;DHT22;4466;50.948;4.832;2023-11-21T11:13:18;11.20;99.90
8860;DHT22;4466;50.948;4.832;2023-11-21T11:15:48;11.10;99.90
8860;DHT22;4466;50.948;4.832;2023-11-21T11:18:14;11.10;99.90
8860;DHT22;4466;50.948;4.832;2023-11-21T11:20:43;11.10;99.90
8860;DHT22;4466;50.948;4.832;2023-11-21T11:28:38;11.00;99.90
8860;DHT22;4466;50.948;4.832;2023-11-21T11:31:26;11.00;99.90
8860;DHT22;4466;50.948;4.832;2023-11-21T11:37:01;10.90;99.90
8860;DHT22;4466;50.948;4.832;2023-11-21T11:39:37;10.90;99.90
8860;DHT22;4466;50.948;4.832;2023-11-21T11:42:06;10.90;99.90
8860;DHT22;4466;50.948;4.832;2023-11-21T11:47:21;10.90;99.90
8860;DHT22;4466;50.948;4.832;2023-11-21T11:52:54;11.00;99.90
8860;DHT22;4466;50.948;4.832;2023-11-21T11:55:24;11.10;99.90
8860;DHT22;4466;50.948;4.832;2023-11-21T11:57:53;11.20;99.90
8860;DHT22;4466;50.948;4.832;2023-11-21T12:03:01;11.30;99.90
8860;DHT22;4466;50.948;4.832;2023-11-21T12:05:34;11.30;99.90
8860;DHT22;4466;50.948;4.832;2023-11-21T12:08:09;11.30;99.90
8860;DHT22;4466;50.948;4.832;2023-11-21T12:10:38;11.40;99.90
8860;DHT22;4466;50.948;4.832;2023-11-21T12:13:08;11.50;99.90
8860;DHT22;4466;50.948;4.832;2023-11-21T12:15:36;11.60;99.90
8860;DHT22;4466;50.948;4.832;2023-11-21T12:18:02;11.50;99.90
8860;DHT22;4466;50.948;4.832;2023-11-21T12:20:30;11.60;99.90
8860;DHT22;4466;50.948;4.832;2023-11-21T12:23:00;11.70;99.90
8860;DHT22;4466;50.948;4.832;2023-11-21T12:25:30;11.70;99.90
8860;DHT22;4466;50.948;4.832;2023-11-21T12:27:58;11.70;99.90
8860;DHT22;4466;50.948;4.832;2023-11-21T12:30:27;11.70;99.90
8860;DHT22;4466;50.948;4.832;2023-11-21T12:32:56;11.80;99.90
8860;DHT22;4466;50.948;4.832;2023-11-21T12:35:25;11.80;99.90
8860;DHT22;4466;50.948;4.832;2023-11-21T12:37:52;11.80;99.90
8860;DHT22;4466;50.948;4.832;2023-11-21T12:40:19;11.70;99.90
8860;DHT22;4466;50.948;4.832;2023-11-21T12:42:46;11.80;99.90
8860;DHT22;4466;50.948;4.832;2023-11-21T12:48:09;11.70;99.90
8860;DHT22;4466;50.948;4.832;2023-11-21T12:50:37;11.70;99.90
8860;DHT22;4466;50.948;4.832;2023-11-21T12:53:08;11.80;99.90
8860;DHT22;4466;50.948;4.832;2023-11-21T12:55:35;11.80;99.90
8860;DHT22;4466;50.948;4.832;2023-11-21T12:58:05;11.80;99.90
8860;DHT22;4466;50.948;4.832;2023-11-21T13:00:39;11.90;99.90
8860;DHT22;4466;50.948;4.832;2023-11-21T13:03:09;11.90;99.90
8860;DHT22;4466;50.948;4.832;2023-11-21T13:05:39;11.90;99.90
8860;DHT22;4466;50.948;4.832;2023-11-21T13:08:08;11.90;99.90
8860;DHT22;4466;50.948;4.832;2023-11-21T13:10:36;11.80;99.90
8860;DHT22;4466;50.948;4.832;2023-11-21T13:13:07;11.80;99.90
8860;DHT22;4466;50.948;4.832;2023-11-21T13:15:39;11.70;99.90
8860;DHT22;4466;50.948;4.832;2023-11-21T13:18:06;11.70;99.90
8860;DHT22;4466;50.948;4.832;2023-11-21T13:20:32;11.70;99.90
8860;DHT22;4466;50.948;4.832;2023-11-21T13:22:59;11.60;99.90
8860;DHT22;4466;50.948;4.832;2023-11-21T13:25:27;11.60;99.90
8860;DHT22;4466;50.948;4.832;2023-11-21T13:27:59;11.60;99.90
8860;DHT22;4466;50.948;4.832;2023-11-21T13:30:26;11.60;99.90
8860;DHT22;4466;50.948;4.832;2023-11-21T13:32:55;11.50;99.90
8860;DHT22;4466;50.948;4.832;2023-11-21T13:35:27;11.50;99.90
8860;DHT22;4466;50.948;4.832;2023-11-21T13:38:05;11.50;99.90
8860;DHT22;4466;50.948;4.832;2023-11-21T13:40:31;11.50;99.90
8860;DHT22;4466;50.948;4.832;2023-11-21T13:43:00;11.50;99.90
8860;DHT22;4466;50.948;4.832;2023-11-21T13:45:29;11.50;99.90
8860;DHT22;4466;50.948;4.832;2023-11-21T13:47:56;11.50;99.90
8860;DHT22;4466;50.948;4.832;2023-11-21T13:50:28;11.50;99.90
8860;DHT22;4466;50.948;4.832;2023-11-21T13:53:01;11.60;99.90
8860;DHT22;4466;50.948;4.832;2023-11-21T13:55:47;11.60;99.90
8860;DHT22;4466;50.948;4.832;2023-11-21T13:58:14;11.60;99.90
8860;DHT22;4466;50.948;4.832;2023-11-21T14:00:48;11.60;99.90
8860;DHT22;4466;50.948;4.832;2023-11-21T14:03:25;11.70;99.90
8860;DHT22;4466;50.948;4.832;2023-11-21T14:06:03;11.70;99.90
8860;DHT22;4466;50.948;4.832;2023-11-21T14:08:34;11.60;99.90
8860;DHT22;4466;50.948;4.832;2023-11-21T14:11:00;11.60;99.90
8860;DHT22;4466;50.948;4.832;2023-11-21T14:13:28;11.60;99.90
8860;DHT22;4466;50.948;4.832;2023-11-21T14:15:54;11.60;99.90
8860;DHT22;4466;50.948;4.832;2023-11-21T14:18:24;11.60;99.90
8860;DHT22;4466;50.948;4.832;2023-11-21T14:21:01;11.70;99.90
8860;DHT22;4466;50.948;4.832;2023-11-21T14:23:27;11.70;99.90
8860;DHT22;4466;50.948;4.832;2023-11-21T14:25:54;11.70;99.90
8860;DHT22;4466;50.948;4.832;2023-11-21T14:28:19;11.70;99.90
8860;DHT22;4466;50.948;4.832;2023-11-21T14:30:46;11.70;99.90
8860;DHT22;4466;50.948;4.832;2023-11-21T14:33:12;11.60;99.90
8860;DHT22;4466;50.948;4.832;2023-11-21T14:35:38;11.70;99.90
8860;DHT22;4466;50.948;4.832;2023-11-21T14:38:04;11.70;99.90
8860;DHT22;4466;50.948;4.832;2023-11-21T14:40:33;11.70;99.90
8860;DHT22;4466;50.948;4.832;2023-11-21T14:43:01;11.60;99.90
8860;DHT22;4466;50.948;4.832;2023-11-21T14:45:31;11.60;99.90
8860;DHT22;4466;50.948;4.832;2023-11-21T14:47:56;11.60;99.90
8860;DHT22;4466;50.948;4.832;2023-11-21T14:50:32;11.50;99.90
8860;DHT22;4466;50.948;4.832;2023-11-21T14:53:14;11.50;99.90
8860;DHT22;4466;50.948;4.832;2023-11-21T14:55:40;11.50;99.90
8860;DHT22;4466;50.948;4.832;2023-11-21T14:58:15;11.40;99.90
8860;DHT22;4466;50.948;4.832;2023-11-21T15:00:47;11.40;99.90
8860;DHT22;4466;50.948;4.832;2023-11-21T15:03:13;11.40;99.90
8860;DHT22;4466;50.948;4.832;2023-11-21T15:06:09;11.40;99.90
8860;DHT22;4466;50.948;4.832;2023-11-21T15:08:49;11.30;99.90
8860;DHT22;4466;50.948;4.832;2023-11-21T15:11:21;11.30;99.90
8860;DHT22;4466;50.948;4.832;2023-11-21T15:13:54;11.30;99.90
8860;DHT22;4466;50.948;4.832;2023-11-21T15:16:20;11.30;99.90
8860;DHT22;4466;50.948;4.832;2023-11-21T15:18:46;11.30;99.90
8860;DHT22;4466;50.948;4.832;2023-11-21T15:21:11;11.30;99.90
8860;DHT22;4466;50.948;4.832;2023-11-21T15:23:38;11.30;99.90
8860;DHT22;4466;50.948;4.832;2023-11-21T15:26:04;11.30;99.90
8860;DHT22;4466;50.948;4.832;2023-11-21T15:28:30;11.30;99.90
8860;DHT22;4466;50.948;4.832;2023-11-21T15:30:58;11.30;99.90
8860;DHT22;4466;50.948;4.832;2023-11-21T15:33:23;11.30;99.90
8860;DHT22;4466;50.948;4.832;2023-11-21T15:35:49;11.20;99.90
8860;DHT22;4466;50.948;4.832;2023-11-21T15:38:15;11.20;99.90
8860;DHT22;4466;50.948;4.832;2023-11-21T15:40:40;11.20;99.90
8860;DHT22;4466;50.948;4.832;2023-11-21T15:43:08;11.20;99.90
8860;DHT22;4466;50.948;4.832;2023-11-21T15:45:34;11.20;99.90
8860;DHT22;4466;50.948;4.832;2023-11-21T15:47:59;11.20;99.90
8860;DHT22;4466;50.948;4.832;2023-11-21T15:50:26;11.10;99.90
8860;DHT22;4466;50.948;4.832;2023-11-21T15:52:53;11.10;99.90
8860;DHT22;4466;50.948;4.832;2023-11-21T15:55:19;11.10;99.90
8860;DHT22;4466;50.948;4.832;2023-11-21T15:57:45;11.10;99.90
8860;DHT22;4466;50.948;4.832;2023-11-21T16:00:11;11.10;99.90
8860;DHT22;4466;50.948;4.832;2023-11-21T16:02:42;11.10;99.90
8860;DHT22;4466;50.948;4.832;2023-11-21T16:05:09;11.10;99.90
8860;DHT22;4466;50.948;4.832;2023-11-21T16:07:35;11.00;99.90
8860;DHT22;4466;50.948;4.832;2023-11-21T16:10:02;11.00;99.90
8860;DHT22;4466;50.948;4.832;2023-11-21T16:12:27;11.00;99.90
8860;DHT22;4466;50.948;4.832;2023-11-21T16:14:53;11.00;99.90
8860;DHT22;4466;50.948;4.832;2023-11-21T16:17:19;11.00;99.90
8860;DHT22;4466;50.948;4.832;2023-11-21T16:19:46;11.00;99.90
8860;DHT22;4466;50.948;4.832;2023-11-21T16:22:13;11.00;99.90
8860;DHT22;4466;50.948;4.832;2023-11-21T16:24:38;11.00;99.90
8860;DHT22;4466;50.948;4.832;2023-11-21T16:27:04;11.00;99.90
8860;DHT22;4466;50.948;4.832;2023-11-21T16:29:31;11.00;99.90